Time;durP1;ratioP1;P1;durP2;ratioP2;P2;SDS_P1;SDS_P2;PMS_P1;PMS_P2;Temp;Humidity;BMP_temperature;BMP_pressure;BME280_temperature;BME280_humidity;BME280_pressure;Samples;Min_cycle;Max_cycle;Signal;HPM_P1;HPM_P2
2022/11/29 00:01:19;;;;;;;66.28;16.40;;;6.30;99.90;;;;;;6186469;23;20020;-81
2022/11/29 00:03:45;;;;;;;58.90;16.80;;;6.30;99.90;;;;;;6159737;23;20457;-81
2022/11/29 00:06:20;;;;;;;41.42;16.90;;;6.40;99.90;;;;;;6186449;23;20016;-82
2022/11/29 00:08:46;;;;;;;41.53;16.95;;;6.40;99.90;;;;;;6186096;23;20374;-81
2022/11/29 00:12:10;;;;;;;43.70;18.13;;;6.30;99.90;;;;;;6186290;23;20040;-81
2022/11/29 00:14:02;;;;;;;57.13;18.40;;;6.40;99.90;;;;;;6185746;23;20445;-81
2022/11/29 00:16:28;;;;;;;48.75;17.67;;;6.40;99.90;;;;;;6185766;23;20021;-81
2022/11/29 00:18:53;;;;;;;44.08;16.25;;;6.40;99.90;;;;;;6185974;23;20021;-82
2022/11/29 00:21:19;;;;;;;49.33;19.95;;;6.40;99.90;;;;;;6186028;23;20051;-82
2022/11/29 00:23:45;;;;;;;41.25;18.27;;;6.40;99.90;;;;;;6186330;23;20040;-82
2022/11/29 00:26:10;;;;;;;53.78;18.23;;;6.30;99.90;;;;;;6185954;23;20360;-82
2022/11/29 00:28:39;;;;;;;46.88;18.95;;;6.30;99.90;;;;;;6159528;23;20024;-82
2022/11/29 00:31:23;;;;;;;43.45;18.63;;;6.40;99.90;;;;;;6185733;23;20337;-82
2022/11/29 00:33:50;;;;;;;45.45;18.17;;;6.30;99.90;;;;;;6186343;23;20013;-82
2022/11/29 00:36:15;;;;;;;55.72;18.17;;;6.20;99.90;;;;;;6185841;23;20385;-82
2022/11/29 00:38:41;;;;;;;51.05;18.10;;;6.30;99.90;;;;;;6159539;23;20496;-82
2022/11/29 00:41:07;;;;;;;53.67;18.50;;;6.30;99.90;;;;;;6159432;23;20017;-82
2022/11/29 00:43:33;;;;;;;56.15;19.13;;;6.30;99.90;;;;;;6159475;23;20021;-82
2022/11/29 00:45:59;;;;;;;45.28;17.08;;;6.30;99.90;;;;;;6186157;23;20024;-82
2022/11/29 00:48:24;;;;;;;49.95;19.27;;;6.30;99.90;;;;;;6159509;23;20450;-82
2022/11/29 00:50:50;;;;;;;47.03;18.25;;;6.20;99.90;;;;;;6186096;23;20083;-82
2022/11/29 00:53:16;;;;;;;43.65;16.75;;;6.30;99.90;;;;;;6159549;23;20068;-82
2022/11/29 00:55:44;;;;;;;46.15;18.20;;;6.30;99.90;;;;;;6186096;23;20088;-82
2022/11/29 00:58:09;;;;;;;44.22;17.30;;;6.30;99.90;;;;;;6186093;23;20084;-82
2022/11/29 01:00:35;;;;;;;46.45;17.60;;;6.20;99.90;;;;;;6186138;23;20051;-82
2022/11/29 01:03:01;;;;;;;44.50;17.40;;;6.20;99.90;;;;;;6186122;23;20338;-82
2022/11/29 01:05:27;;;;;;;42.90;18.65;;;6.20;99.90;;;;;;6186123;23;20021;-83
2022/11/29 01:07:52;;;;;;;43.72;17.17;;;6.20;99.90;;;;;;6186054;23;20075;-82
2022/11/29 01:10:18;;;;;;;41.30;16.58;;;6.20;99.90;;;;;;6186982;23;20027;-82
2022/11/29 01:12:44;;;;;;;35.55;16.05;;;6.20;99.90;;;;;;6187986;23;20051;-82
2022/11/29 01:15:10;;;;;;;46.50;18.05;;;6.20;99.90;;;;;;6187881;23;20075;-83
2022/11/29 01:17:38;;;;;;;37.22;16.00;;;6.20;99.90;;;;;;6161005;23;20503;-83
2022/11/29 01:20:05;;;;;;;43.85;17.70;;;6.20;99.90;;;;;;6161245;23;20032;-83
2022/11/29 01:22:32;;;;;;;44.67;17.33;;;6.20;99.90;;;;;;6161189;23;20092;-83
2022/11/29 01:24:58;;;;;;;38.13;16.40;;;6.20;99.90;;;;;;6161235;23;20025;-82
2022/11/29 01:27:23;;;;;;;43.30;17.98;;;6.20;99.90;;;;;;6161274;23;20016;-83
2022/11/29 01:29:49;;;;;;;37.63;17.33;;;6.20;99.90;;;;;;6187512;23;20079;-82
2022/11/29 01:32:15;;;;;;;42.45;16.48;;;6.20;99.90;;;;;;6187816;23;20096;-83
2022/11/29 01:34:40;;;;;;;48.33;18.48;;;6.10;99.90;;;;;;6161195;23;20025;-83
2022/11/29 01:37:06;;;;;;;39.40;17.05;;;6.10;99.90;;;;;;6187812;23;20009;-82
2022/11/29 01:39:31;;;;;;;45.20;17.15;;;6.20;99.90;;;;;;6161137;23;20020;-82
2022/11/29 01:41:59;;;;;;;38.80;16.40;;;6.10;99.90;;;;;;6161127;23;20025;-82
2022/11/29 01:44:25;;;;;;;38.75;16.40;;;6.20;99.90;;;;;;6187426;23;20017;-83
2022/11/29 01:46:52;;;;;;;39.63;16.40;;;6.10;99.90;;;;;;6161048;23;20017;-83
2022/11/29 01:49:41;;;;;;;41.45;17.75;;;6.20;99.90;;;;;;6187647;23;20084;-82
2022/11/29 01:52:13;;;;;;;39.05;16.73;;;6.10;99.90;;;;;;6187685;23;20096;-82
2022/11/29 01:54:42;;;;;;;39.78;18.08;;;6.10;99.90;;;;;;6160987;23;20056;-83
2022/11/29 01:57:08;;;;;;;39.17;17.38;;;6.10;99.90;;;;;;6187515;23;20025;-83
2022/11/29 01:59:40;;;;;;;40.25;17.38;;;6.00;99.90;;;;;;6160885;23;20464;-83
2022/11/29 02:02:11;;;;;;;35.28;16.63;;;6.10;99.90;;;;;;6187677;23;20009;-82
2022/11/29 02:04:38;;;;;;;39.60;16.90;;;6.00;99.90;;;;;;6160849;23;20075;-82
2022/11/29 02:07:04;;;;;;;39.33;17.13;;;6.10;99.90;;;;;;6187258;23;20408;-82
2022/11/29 02:09:30;;;;;;;44.47;18.13;;;6.00;99.90;;;;;;6160753;23;20049;-82
2022/11/29 02:12:02;;;;;;;39.38;16.70;;;6.00;99.90;;;;;;6187106;23;20457;-82
2022/11/29 02:14:33;;;;;;;42.67;16.88;;;6.00;99.90;;;;;;6160753;23;20151;-82
2022/11/29 02:17:19;;;;;;;41.90;17.70;;;6.10;99.90;;;;;;6186981;23;20021;-82
2022/11/29 02:20:23;;;;;;;41.63;17.50;;;6.00;99.90;;;;;;6160670;23;20024;-82
2022/11/29 02:22:57;;;;;;;37.40;16.10;;;6.00;99.90;;;;;;6160269;23;20068;-82
2022/11/29 02:25:38;;;;;;;48.35;18.38;;;6.00;99.90;;;;;;6160703;23;20021;-82
2022/11/29 02:28:32;;;;;;;42.08;16.65;;;6.00;99.90;;;;;;6187271;23;20325;-82
2022/11/29 02:31:07;;;;;;;37.65;15.70;;;6.00;99.90;;;;;;6186913;23;20021;-82
2022/11/29 02:34:12;;;;;;;42.25;15.38;;;6.00;99.90;;;;;;6160638;23;20021;-82
2022/11/29 02:36:37;;;;;;;41.20;16.55;;;6.00;99.90;;;;;;6159471;23;20025;-82
2022/11/29 02:39:06;;;;;;;37.63;16.88;;;6.00;99.90;;;;;;6160592;23;20338;-82
2022/11/29 02:41:56;;;;;;;41.75;16.67;;;5.90;99.90;;;;;;6160844;23;20108;-82
2022/11/29 02:44:46;;;;;;;37.63;14.90;;;6.00;99.90;;;;;;6160509;23;20464;-82
2022/11/29 02:47:41;;;;;;;38.20;15.85;;;6.00;99.90;;;;;;6187159;23;20028;-82
2022/11/29 02:50:37;;;;;;;40.22;15.68;;;6.00;99.90;;;;;;6187018;23;20021;-82
2022/11/29 02:53:08;;;;;;;37.03;15.82;;;5.90;99.90;;;;;;6160282;23;20076;-82
2022/11/29 02:55:39;;;;;;;32.40;15.68;;;5.90;99.90;;;;;;6160462;23;20017;-82
2022/11/29 02:58:35;;;;;;;38.08;15.75;;;6.00;99.90;;;;;;6187012;23;20070;-82
2022/11/29 03:01:19;;;;;;;39.35;15.80;;;5.90;99.90;;;;;;6160361;23;20384;-82
2022/11/29 03:04:01;;;;;;;41.10;16.60;;;6.00;99.90;;;;;;6187061;23;20025;-82
2022/11/29 03:06:57;;;;;;;34.53;14.88;;;6.00;99.90;;;;;;6186609;23;20366;-82
2022/11/29 03:09:44;;;;;;;33.47;14.55;;;5.90;99.90;;;;;;6160139;23;20066;-82
2022/11/29 03:12:29;;;;;;;33.50;15.38;;;5.90;99.90;;;;;;6160239;23;20020;-82
2022/11/29 03:14:58;;;;;;;37.15;15.40;;;5.90;99.90;;;;;;6160351;23;20082;-82
2022/11/29 03:17:30;;;;;;;34.53;16.08;;;5.90;99.90;;;;;;6186494;23;20025;-82
2022/11/29 03:20:06;;;;;;;33.45;15.35;;;5.90;99.90;;;;;;6160240;23;20024;-82
2022/11/29 03:22:57;;;;;;;38.28;16.02;;;5.90;99.90;;;;;;6186776;23;20332;-82
2022/11/29 03:25:31;;;;;;;33.08;14.52;;;5.90;99.90;;;;;;6160134;23;20028;-82
2022/11/29 03:28:12;;;;;;;37.63;14.93;;;5.80;99.90;;;;;;6186941;23;20341;-82
2022/11/29 03:30:42;;;;;;;33.38;14.30;;;5.80;99.90;;;;;;6160030;23;20101;-82
2022/11/29 03:33:11;;;;;;;34.13;13.75;;;5.80;99.90;;;;;;6160030;23;20442;-82
2022/11/29 03:35:44;;;;;;;32.40;13.80;;;5.80;99.90;;;;;;6160123;23;20424;-82
2022/11/29 03:38:13;;;;;;;34.65;14.63;;;5.70;99.90;;;;;;6160059;23;20096;-82
2022/11/29 03:40:49;;;;;;;37.17;14.77;;;5.70;99.90;;;;;;6160000;23;20028;-82
2022/11/29 03:43:22;;;;;;;33.05;13.40;;;5.70;99.90;;;;;;6160003;23;20468;-82
2022/11/29 03:45:55;;;;;;;30.63;14.10;;;5.70;99.90;;;;;;6187139;23;20012;-82
2022/11/29 03:48:28;;;;;;;33.20;14.82;;;5.70;99.90;;;;;;6186613;23;20019;-83
2022/11/29 03:50:59;;;;;;;41.15;14.18;;;5.70;99.90;;;;;;6159907;23;20025;-82
2022/11/29 03:53:40;;;;;;;39.85;14.98;;;5.70;99.90;;;;;;6186043;23;20373;-83
2022/11/29 03:56:21;;;;;;;30.48;13.68;;;5.70;99.90;;;;;;6186114;23;20388;-82
2022/11/29 03:58:58;;;;;;;31.58;12.90;;;5.70;99.90;;;;;;6186450;23;20021;-82
2022/11/29 04:02:03;;;;;;;38.30;13.68;;;5.70;99.90;;;;;;6186480;23;20108;-82
2022/11/29 04:04:34;;;;;;;28.73;12.98;;;5.70;99.90;;;;;;6159820;23;20017;-82
2022/11/29 04:07:05;;;;;;;33.38;13.48;;;5.70;99.90;;;;;;6186457;23;20023;-82
2022/11/29 04:09:49;;;;;;;31.40;13.52;;;5.60;99.90;;;;;;6186045;23;20464;-82
2022/11/29 04:12:52;;;;;;;36.92;13.77;;;5.60;99.90;;;;;;6186009;23;20021;-82
2022/11/29 04:15:48;;;;;;;24.85;12.13;;;5.70;99.90;;;;;;6159766;23;20093;-82
2022/11/29 04:18:51;;;;;;;28.98;13.32;;;5.60;99.90;;;;;;6159704;23;20064;-82
2022/11/29 04:21:26;;;;;;;27.40;11.70;;;5.60;99.90;;;;;;6159781;23;20042;-83
2022/11/29 04:24:28;;;;;;;25.52;11.82;;;5.60;99.90;;;;;;6186398;23;20092;-82
2022/11/29 04:26:57;;;;;;;33.85;11.75;;;5.60;99.90;;;;;;6186243;23;20091;-82
2022/11/29 04:29:38;;;;;;;33.80;13.85;;;5.50;99.90;;;;;;6185860;23;20024;-82
2022/11/29 04:32:30;;;;;;;27.98;12.20;;;5.60;99.90;;;;;;6186298;23;20013;-82
2022/11/29 04:35:05;;;;;;;32.22;14.10;;;5.60;99.90;;;;;;6186155;23;20096;-82
2022/11/29 04:37:46;;;;;;;27.95;12.88;;;5.60;99.90;;;;;;6159593;23;20021;-82
2022/11/29 04:40:36;;;;;;;31.77;13.93;;;5.60;99.90;;;;;;6159621;23;20108;-82
2022/11/29 04:43:11;;;;;;;30.67;13.23;;;5.60;99.90;;;;;;6159590;23;20025;-82
2022/11/29 04:46:03;;;;;;;30.55;13.50;;;5.50;99.90;;;;;;6160985;23;20021;-82
2022/11/29 04:49:07;;;;;;;33.75;14.05;;;5.50;99.90;;;;;;6161619;23;20468;-82
2022/11/29 04:51:59;;;;;;;38.25;14.65;;;5.50;99.90;;;;;;6130557;23;20017;-82
2022/11/29 04:54:44;;;;;;;27.23;12.25;;;5.60;99.90;;;;;;6161566;23;20036;-82
2022/11/29 04:57:50;;;;;;;35.45;14.18;;;5.50;99.90;;;;;;6161607;23;20445;-82
2022/11/29 05:00:20;;;;;;;30.08;13.02;;;5.60;99.90;;;;;;6188100;23;20041;-82
2022/11/29 05:02:55;;;;;;;39.67;13.55;;;5.50;99.90;;;;;;6161490;23;20013;-83
2022/11/29 05:05:27;;;;;;;31.13;13.57;;;5.60;99.90;;;;;;6161551;23;20020;-82
2022/11/29 05:08:23;;;;;;;31.00;13.73;;;5.50;99.90;;;;;;6161556;23;20040;-83
2022/11/29 05:11:15;;;;;;;34.42;13.57;;;5.50;99.90;;;;;;6187974;23;20108;-83
2022/11/29 05:14:07;;;;;;;37.92;13.25;;;5.50;99.90;;;;;;6188084;23;20009;-83
2022/11/29 05:16:52;;;;;;;30.53;13.27;;;5.50;99.90;;;;;;6161191;23;20096;-82
2022/11/29 05:19:29;;;;;;;31.50;14.00;;;5.60;99.90;;;;;;6187909;23;20083;-83
2022/11/29 05:22:01;;;;;;;36.70;14.10;;;5.60;99.90;;;;;;6187718;23;20025;-83
2022/11/29 05:24:51;;;;;;;34.50;12.73;;;5.60;99.90;;;;;;6187863;23;20149;-83
2022/11/29 05:27:34;;;;;;;43.03;15.50;;;5.60;99.90;;;;;;6161221;23;20017;-83
2022/11/29 05:30:15;;;;;;;33.30;13.30;;;5.60;99.90;;;;;;6187868;23;20063;-83
2022/11/29 05:33:13;;;;;;;38.72;13.65;;;5.70;99.90;;;;;;6187920;23;20044;-83
2022/11/29 05:36:34;;;;;;;34.78;13.02;;;5.70;99.90;;;;;;6187866;23;20055;-83
2022/11/29 05:39:36;;;;;;;34.90;14.73;;;5.80;99.90;;;;;;6129368;23;20017;-83
2022/11/29 05:42:43;;;;;;;41.75;13.93;;;5.90;99.90;;;;;;6161028;23;20021;-83
2022/11/29 05:45:14;;;;;;;39.03;13.10;;;5.90;99.90;;;;;;6187323;23;20448;-83
2022/11/29 05:48:00;;;;;;;38.42;15.68;;;5.90;99.90;;;;;;6161066;23;20490;-82
2022/11/29 05:50:40;;;;;;;28.95;12.68;;;6.00;99.90;;;;;;6187672;23;20067;-83
2022/11/29 05:53:24;;;;;;;38.97;15.45;;;6.00;99.90;;;;;;6187747;23;20066;-83
2022/11/29 05:56:08;;;;;;;41.72;14.00;;;6.00;99.90;;;;;;6187197;23;20091;-83
2022/11/29 05:59:00;;;;;;;32.00;12.63;;;6.00;99.90;;;;;;6160949;23;20465;-83
2022/11/29 06:01:47;;;;;;;41.80;13.38;;;6.10;99.90;;;;;;6187637;23;20009;-83
2022/11/29 06:04:20;;;;;;;41.72;12.38;;;6.10;99.90;;;;;;6160902;23;20017;-83
2022/11/29 06:07:14;;;;;;;45.03;13.57;;;6.10;99.90;;;;;;6187572;23;20017;-83
2022/11/29 06:09:52;;;;;;;33.05;12.35;;;6.20;99.90;;;;;;6160738;23;20060;-83
2022/11/29 06:12:22;;;;;;;36.35;12.82;;;6.20;99.90;;;;;;6187125;23;20345;-83
2022/11/29 06:15:18;;;;;;;40.25;12.93;;;6.20;99.90;;;;;;6160799;23;20430;-83
2022/11/29 06:17:44;;;;;;;36.75;11.77;;;6.30;99.90;;;;;;6160659;23;20528;-83
2022/11/29 06:20:47;;;;;;;37.83;12.98;;;6.20;99.90;;;;;;6160626;23;20052;-82
2022/11/29 06:23:40;;;;;;;33.22;12.25;;;6.20;99.90;;;;;;6160714;23;20021;-82
2022/11/29 06:26:23;;;;;;;43.80;12.63;;;6.20;99.90;;;;;;6160744;23;20020;-82
2022/11/29 06:29:13;;;;;;;31.45;11.88;;;6.20;99.90;;;;;;6187007;23;20465;-82
2022/11/29 06:31:43;;;;;;;40.47;12.00;;;6.20;99.90;;;;;;6160606;23;20021;-82
2022/11/29 06:34:12;;;;;;;38.30;11.73;;;6.20;99.90;;;;;;6160606;23;20119;-82
2022/11/29 06:36:51;;;;;;;39.20;12.48;;;6.20;99.90;;;;;;6186854;23;20386;-82
2022/11/29 06:39:16;;;;;;;41.83;12.52;;;6.20;99.90;;;;;;6160626;23;20021;-82
2022/11/29 06:41:42;;;;;;;35.78;12.25;;;6.30;99.90;;;;;;6186759;23;20063;-82
2022/11/29 06:44:09;;;;;;;40.40;11.77;;;6.30;99.90;;;;;;6160509;23;20097;-82
2022/11/29 06:46:44;;;;;;;33.65;10.73;;;6.30;99.90;;;;;;6160424;23;20445;-82
2022/11/29 06:49:27;;;;;;;29.98;10.30;;;6.30;99.90;;;;;;6187114;23;20021;-82
2022/11/29 06:52:06;;;;;;;29.38;10.23;;;6.40;99.90;;;;;;6160504;23;20028;-82
2022/11/29 06:54:40;;;;;;;33.08;10.73;;;6.30;99.90;;;;;;6187262;23;20013;-82
2022/11/29 06:57:16;;;;;;;38.15;9.98;;;6.30;99.90;;;;;;6160518;23;20091;-82
2022/11/29 06:59:56;;;;;;;35.10;10.13;;;6.40;99.90;;;;;;6186741;23;20564;-82
2022/11/29 07:03:02;;;;;;;38.40;10.50;;;6.40;99.90;;;;;;6160407;23;20108;-82
2022/11/29 07:05:33;;;;;;;37.85;10.50;;;6.50;99.90;;;;;;6160394;23;20437;-82
2022/11/29 07:08:12;;;;;;;35.63;11.00;;;6.50;99.90;;;;;;6160213;23;20017;-82
2022/11/29 07:10:40;;;;;;;35.60;10.82;;;6.60;99.90;;;;;;6186947;23;20052;-82
2022/11/29 07:13:06;;;;;;;34.65;10.68;;;6.70;99.90;;;;;;6160272;23;20092;-82
2022/11/29 07:15:32;;;;;;;35.80;10.65;;;6.70;99.90;;;;;;6159934;23;20049;-81
2022/11/29 07:18:19;;;;;;;33.90;9.55;;;6.60;99.90;;;;;;6160271;23;20025;-82
2022/11/29 07:21:15;;;;;;;37.58;10.43;;;6.70;99.90;;;;;;6160191;23;20044;-82
2022/11/29 07:24:01;;;;;;;32.25;9.57;;;6.70;99.90;;;;;;6186657;23;20020;-82
2022/11/29 07:26:43;;;;;;;33.75;7.72;;;6.80;99.90;;;;;;6160452;23;20052;-82
2022/11/29 07:29:50;;;;;;;33.03;8.10;;;6.70;99.90;;;;;;6186384;23;20079;-82
2022/11/29 07:32:45;;;;;;;27.20;7.60;;;6.90;99.90;;;;;;6143944;23;20092;-82
2022/11/29 07:35:35;;;;;;;29.25;8.00;;;6.90;99.90;;;;;;6159246;23;20028;-83
2022/11/29 07:38:13;;;;;;;26.48;6.35;;;7.00;99.90;;;;;;6159921;23;20437;-82
2022/11/29 07:40:58;;;;;;;27.92;5.95;;;7.10;99.90;;;;;;6159926;23;20039;-82
2022/11/29 07:43:43;;;;;;;31.02;6.60;;;7.30;99.90;;;;;;6186670;23;20036;-82
2022/11/29 07:46:09;;;;;;;30.50;7.10;;;7.30;99.90;;;;;;6186192;23;20537;-82
2022/11/29 07:48:34;;;;;;;24.83;5.50;;;7.40;99.90;;;;;;6186541;23;20044;-82
2022/11/29 07:51:00;;;;;;;28.92;5.80;;;7.40;99.90;;;;;;6159656;23;20021;-83
2022/11/29 07:53:27;;;;;;;28.63;5.47;;;7.40;99.90;;;;;;6159889;23;20091;-82
2022/11/29 07:55:53;;;;;;;25.30;5.78;;;7.50;99.90;;;;;;6186486;23;20036;-84
2022/11/29 07:58:19;;;;;;;23.40;5.35;;;7.40;99.90;;;;;;6186454;23;20322;-83
2022/11/29 08:00:45;;;;;;;29.38;5.90;;;7.50;99.90;;;;;;6186082;23;20024;-83
2022/11/29 08:03:11;;;;;;;34.83;6.55;;;7.50;99.90;;;;;;6159754;23;20023;-85
2022/11/29 08:05:37;;;;;;;24.38;4.15;;;7.60;99.90;;;;;;6186324;23;20299;-83
2022/11/29 08:08:04;;;;;;;19.98;4.53;;;7.70;99.90;;;;;;6186473;23;20088;-82
2022/11/29 08:10:30;;;;;;;20.23;3.40;;;7.80;99.90;;;;;;6185917;23;20072;-83
2022/11/29 08:12:55;;;;;;;22.70;4.28;;;8.00;99.90;;;;;;6185938;23;20335;-82
2022/11/29 08:15:22;;;;;;;21.50;4.45;;;8.00;99.90;;;;;;6186337;23;20438;-82
2022/11/29 08:17:48;;;;;;;26.88;3.45;;;8.10;99.90;;;;;;6185826;23;20025;-82
2022/11/29 08:20:15;;;;;;;22.63;4.00;;;8.20;99.90;;;;;;6184519;23;20397;-82
2022/11/29 08:22:41;;;;;;;19.35;3.90;;;8.20;99.90;;;;;;6185871;23;20024;-82
2022/11/29 08:25:09;;;;;;;28.35;5.10;;;8.30;99.90;;;;;;6186060;23;20013;-82
2022/11/29 08:27:35;;;;;;;26.30;4.15;;;8.30;99.90;;;;;;6186055;23;20021;-82
2022/11/29 08:30:02;;;;;;;22.45;4.82;;;8.30;99.90;;;;;;6159212;23;20096;-83
2022/11/29 08:32:28;;;;;;;25.45;5.30;;;8.40;99.90;;;;;;6159372;23;20327;-82
2022/11/29 08:34:54;;;;;;;22.90;5.05;;;8.40;99.90;;;;;;6159161;23;20096;-82
2022/11/29 08:37:19;;;;;;;22.73;5.22;;;8.40;99.90;;;;;;6186062;23;20097;-82
2022/11/29 08:39:45;;;;;;;20.08;4.10;;;8.40;99.90;;;;;;6185733;23;20385;-83
2022/11/29 08:42:11;;;;;;;24.75;4.80;;;8.40;99.90;;;;;;6159339;23;20021;-82
2022/11/29 08:44:36;;;;;;;35.80;6.82;;;8.50;99.90;;;;;;6159226;23;20021;-82
2022/11/29 08:50:02;;;;;;;23.38;5.85;;;8.50;99.90;;;;;;6159219;23;20025;-82
2022/11/29 08:55:12;;;;;;;31.83;7.53;;;8.60;99.90;;;;;;6186028;23;20032;-82
2022/11/29 08:57:38;;;;;;;22.88;6.82;;;8.70;99.90;;;;;;6185438;23;20021;-83
2022/11/29 09:00:05;;;;;;;29.15;7.85;;;8.70;99.90;;;;;;6159322;23;20437;-82
2022/11/29 09:02:31;;;;;;;27.08;8.50;;;8.70;99.90;;;;;;6185869;23;20024;-83
2022/11/29 09:04:57;;;;;;;28.10;9.77;;;8.70;99.90;;;;;;6185542;23;20020;-82
2022/11/29 09:07:22;;;;;;;32.97;10.40;;;8.70;99.90;;;;;;6159167;23;20059;-83
2022/11/29 09:09:48;;;;;;;27.85;10.80;;;8.80;99.90;;;;;;6159003;23;20017;-82
2022/11/29 09:12:14;;;;;;;24.90;11.20;;;8.70;99.90;;;;;;6159125;23;20025;-83
2022/11/29 09:14:39;;;;;;;30.92;13.05;;;8.80;99.90;;;;;;6185463;23;20009;-82
2022/11/29 09:17:05;;;;;;;31.13;12.52;;;8.70;99.90;;;;;;6158891;23;20044;-82
2022/11/29 09:19:30;;;;;;;38.20;16.30;;;8.80;99.90;;;;;;6185373;23;20021;-83
2022/11/29 09:21:56;;;;;;;39.22;14.25;;;8.80;99.90;;;;;;6185023;23;20021;-83
2022/11/29 09:24:22;;;;;;;36.22;15.50;;;8.80;99.90;;;;;;6158906;23;20021;-82
2022/11/29 09:26:48;;;;;;;33.60;15.60;;;8.70;99.90;;;;;;6185146;23;20017;-82
2022/11/29 09:29:15;;;;;;;31.15;16.17;;;8.70;99.90;;;;;;6185229;23;20468;-82
2022/11/29 09:31:43;;;;;;;35.63;17.10;;;8.70;99.90;;;;;;6161164;23;20453;-82
2022/11/29 09:34:12;;;;;;;44.67;16.58;;;8.70;99.90;;;;;;6162589;23;20013;-83
2022/11/29 09:36:38;;;;;;;34.45;14.90;;;8.70;99.90;;;;;;6161658;23;20028;-82
2022/11/29 09:39:04;;;;;;;34.03;15.60;;;8.70;99.90;;;;;;6160744;23;20353;-83
2022/11/29 09:42:10;;;;;;;36.17;15.27;;;8.80;99.90;;;;;;6160710;23;20028;-83
2022/11/29 09:45:01;;;;;;;38.42;15.13;;;8.80;99.90;;;;;;6160640;23;20025;-83
2022/11/29 09:47:45;;;;;;;33.85;14.88;;;8.70;99.90;;;;;;6160869;23;20063;-83
2022/11/29 09:50:17;;;;;;;35.20;15.63;;;8.70;99.90;;;;;;6160633;23;20072;-83
2022/11/29 09:53:20;;;;;;;36.72;14.55;;;8.80;99.90;;;;;;6160589;23;20079;-83
2022/11/29 09:56:07;;;;;;;37.58;14.73;;;8.80;99.90;;;;;;6160679;23;20055;-83
2022/11/29 09:58:54;;;;;;;34.13;14.50;;;8.90;99.90;;;;;;6187401;23;20016;-83
2022/11/29 10:01:30;;;;;;;41.17;15.25;;;8.90;99.90;;;;;;6112917;23;20028;-83
2022/11/29 10:04:04;;;;;;;38.67;15.45;;;8.90;99.90;;;;;;6160576;23;20023;-84
2022/11/29 10:06:58;;;;;;;35.45;15.18;;;8.90;99.90;;;;;;6160536;23;20021;-84
2022/11/29 10:09:32;;;;;;;43.13;15.38;;;9.00;99.90;;;;;;6186965;23;20021;-83
2022/11/29 10:12:12;;;;;;;44.70;16.35;;;9.00;99.90;;;;;;6160510;23;20017;-84
2022/11/29 10:15:07;;;;;;;43.15;17.65;;;9.00;99.90;;;;;;6160446;23;20025;-83
2022/11/29 10:17:42;;;;;;;43.40;16.67;;;9.00;99.90;;;;;;6160337;23;20021;-83
2022/11/29 10:20:16;;;;;;;42.33;16.73;;;9.00;99.90;;;;;;6160321;23;20091;-83
2022/11/29 10:22:56;;;;;;;45.92;16.67;;;9.00;99.90;;;;;;6160532;23;20013;-83
2022/11/29 10:25:32;;;;;;;46.55;17.50;;;9.00;99.90;;;;;;6160234;23;20017;-82
2022/11/29 10:27:58;;;;;;;39.67;17.08;;;9.00;99.90;;;;;;6186817;23;20027;-83
2022/11/29 10:30:24;;;;;;;40.75;16.15;;;9.00;99.90;;;;;;6160210;23;20021;-82
2022/11/29 10:32:58;;;;;;;40.42;16.65;;;9.10;99.90;;;;;;6160368;23;20021;-82
2022/11/29 10:35:24;;;;;;;37.47;16.65;;;9.10;99.90;;;;;;6186525;23;20446;-82
2022/11/29 10:37:53;;;;;;;46.97;18.92;;;9.20;99.90;;;;;;6186945;23;20017;-82
2022/11/29 10:40:30;;;;;;;41.47;17.05;;;9.10;99.90;;;;;;6160110;23;20017;-82
2022/11/29 10:42:56;;;;;;;35.30;17.15;;;9.10;99.90;;;;;;6159768;23;20353;-82
2022/11/29 10:45:36;;;;;;;35.58;14.68;;;9.20;99.90;;;;;;6186905;23;20056;-83
2022/11/29 10:48:06;;;;;;;38.97;15.30;;;9.20;99.90;;;;;;6160243;23;20025;-82
2022/11/29 10:50:34;;;;;;;35.80;15.68;;;9.10;99.90;;;;;;6186512;23;20017;-82
2022/11/29 10:53:07;;;;;;;40.70;16.00;;;9.10;99.90;;;;;;6184221;23;20025;-82
2022/11/29 10:56:02;;;;;;;35.90;14.05;;;9.10;99.90;;;;;;6186153;23;20017;-80
2022/11/29 10:58:30;;;;;;;43.35;16.08;;;9.10;99.90;;;;;;6160147;23;20052;-82
2022/11/29 11:00:58;;;;;;;40.42;15.43;;;9.10;99.90;;;;;;6160006;23;20013;-81
2022/11/29 11:03:38;;;;;;;45.70;16.63;;;9.10;99.90;;;;;;6186364;23;20013;-84
2022/11/29 11:06:17;;;;;;;35.83;16.27;;;9.20;99.90;;;;;;6186597;23;20084;-80
2022/11/29 11:08:51;;;;;;;35.85;14.27;;;9.30;99.90;;;;;;6186511;23;20457;-86
2022/11/29 11:11:32;;;;;;;41.58;16.92;;;9.30;99.90;;;;;;6186431;23;20021;-82
2022/11/29 11:14:00;;;;;;;36.85;16.90;;;9.30;99.90;;;;;;6186663;23;20013;-84
2022/11/29 11:16:26;;;;;;;38.67;15.95;;;9.40;99.90;;;;;;6159600;23;20027;-84
2022/11/29 11:18:52;;;;;;;32.67;13.25;;;9.40;99.90;;;;;;6159829;23;20400;-83
2022/11/29 11:21:20;;;;;;;31.25;14.02;;;9.50;99.90;;;;;;6186263;23;20088;-86
2022/11/29 11:23:54;;;;;;;28.30;13.52;;;9.50;99.90;;;;;;6159954;23;20021;-89
2022/11/29 11:26:20;;;;;;;24.35;11.18;;;9.40;99.90;;;;;;6159833;23;20017;-85
2022/11/29 11:29:00;;;;;;;23.20;11.40;;;9.40;99.90;;;;;;6186171;23;20028;-84
2022/11/29 11:31:34;;;;;;;22.77;10.75;;;9.40;99.90;;;;;;6186358;23;20073;-84
2022/11/29 11:34:33;;;;;;;18.85;10.35;;;9.40;99.90;;;;;;6159602;23;20363;-81
2022/11/29 11:37:15;;;;;;;16.17;9.13;;;9.40;99.90;;;;;;6106646;23;20021;-81
2022/11/29 11:39:46;;;;;;;13.93;8.23;;;9.50;99.90;;;;;;6186737;23;20017;-81
2022/11/29 11:45:04;;;;;;;15.60;8.75;;;9.50;99.90;;;;;;6186076;23;20025;-81
2022/11/29 11:47:34;;;;;;;16.23;8.75;;;9.40;99.90;;;;;;6159676;23;20048;-81
2022/11/29 11:50:03;;;;;;;16.88;8.38;;;9.50;99.90;;;;;;6186196;23;20013;-81
2022/11/29 11:52:42;;;;;;;17.05;8.68;;;9.40;99.90;;;;;;6159477;23;20516;-81
2022/11/29 11:55:16;;;;;;;14.57;8.60;;;9.40;99.90;;;;;;6185907;23;20100;-81
2022/11/29 11:57:42;;;;;;;15.25;8.75;;;9.30;99.90;;;;;;6185786;23;20498;-81
2022/11/29 12:00:32;;;;;;;14.40;9.23;;;9.10;99.90;;;;;;6186254;23;20464;-81
2022/11/29 12:02:58;;;;;;;17.42;10.40;;;9.20;99.90;;;;;;6164907;23;20017;-82
2022/11/29 12:05:24;;;;;;;15.40;9.95;;;9.10;99.90;;;;;;6159348;23;20024;-81
2022/11/29 12:07:56;;;;;;;15.40;9.63;;;9.20;99.90;;;;;;6186124;23;20017;-81
2022/11/29 12:10:25;;;;;;;15.77;8.90;;;9.30;99.90;;;;;;6159418;23;20429;-81
2022/11/29 12:12:52;;;;;;;9.40;6.70;;;9.30;99.90;;;;;;6159310;23;20446;-81
2022/11/29 12:15:19;;;;;;;10.00;5.85;;;9.30;99.90;;;;;;6185849;23;20021;-81
2022/11/29 12:17:53;;;;;;;11.18;5.93;;;9.20;99.90;;;;;;6185233;23;20020;-81
2022/11/29 12:20:39;;;;;;;9.13;5.65;;;9.20;99.90;;;;;;6185404;23;20463;-81
2022/11/29 12:23:11;;;;;;;11.18;6.40;;;9.30;99.90;;;;;;6185662;23;20327;-81
2022/11/29 12:25:59;;;;;;;9.70;5.78;;;9.20;99.90;;;;;;6159369;23;20021;-81
2022/11/29 12:28:34;;;;;;;11.25;7.22;;;9.20;99.90;;;;;;6185999;23;20056;-80
2022/11/29 12:31:18;;;;;;;12.63;7.47;;;9.30;99.90;;;;;;6185634;23;20445;-81
2022/11/29 12:33:46;;;;;;;16.00;7.93;;;9.30;99.90;;;;;;6159282;23;20330;-80
2022/11/29 12:36:17;;;;;;;17.33;9.40;;;9.20;99.90;;;;;;6186104;23;20028;-81
2022/11/29 12:39:21;;;;;;;16.42;10.77;;;9.40;99.90;;;;;;6159294;23;20020;-80
2022/11/29 12:42:04;;;;;;;21.92;9.80;;;9.30;99.90;;;;;;6186004;23;20017;-79
2022/11/29 12:44:45;;;;;;;16.80;9.75;;;9.30;99.90;;;;;;6159276;23;20021;-83
2022/11/29 12:47:44;;;;;;;22.30;10.80;;;9.30;99.90;;;;;;6185642;23;20028;-81
2022/11/29 12:50:25;;;;;;;20.52;11.38;;;9.20;99.90;;;;;;6159225;23;20021;-81
2022/11/29 12:53:09;;;;;;;21.85;11.38;;;9.10;99.90;;;;;;6185972;23;20140;-80
2022/11/29 12:56:13;;;;;;;19.80;12.95;;;9.10;99.90;;;;;;6185872;23;20021;-81
2022/11/29 12:59:13;;;;;;;21.38;12.43;;;9.00;99.90;;;;;;6185994;23;20080;-81
2022/11/29 13:02:13;;;;;;;25.48;13.25;;;8.90;99.90;;;;;;6185572;23;20028;-81
2022/11/29 13:04:49;;;;;;;25.13;12.60;;;8.80;99.90;;;;;;6159051;23;20385;-81
2022/11/29 13:07:34;;;;;;;26.77;13.73;;;8.80;99.90;;;;;;6187717;23;20092;-81
2022/11/29 13:10:24;;;;;;;27.58;14.13;;;8.80;99.90;;;;;;6187718;23;20025;-81
2022/11/29 13:12:54;;;;;;;26.70;15.10;;;8.80;99.90;;;;;;6187839;23;20009;-81
2022/11/29 13:15:25;;;;;;;23.45;13.15;;;8.80;99.90;;;;;;6187845;23;20013;-81
2022/11/29 13:18:16;;;;;;;23.67;12.98;;;8.90;99.90;;;;;;6161114;23;20017;-81
2022/11/29 13:20:46;;;;;;;23.88;12.95;;;8.90;99.90;;;;;;6187325;23;20017;-81
2022/11/29 13:23:35;;;;;;;22.67;12.73;;;8.90;99.90;;;;;;6187772;23;20017;-81
2022/11/29 13:26:05;;;;;;;25.67;13.43;;;8.90;99.90;;;;;;6093911;23;20025;-81
2022/11/29 13:28:38;;;;;;;24.17;12.65;;;8.70;99.90;;;;;;6187639;23;20017;-81
2022/11/29 13:31:08;;;;;;;21.65;12.93;;;8.70;99.90;;;;;;6187493;23;20020;-81
2022/11/29 13:33:59;;;;;;;24.23;13.23;;;8.60;99.90;;;;;;6160991;23;20357;-81